KUES

Waukesha County Airport

Waukesha, Wisconsin, USA
KUES 230520Z 2306/2406 05004KT P6SM SCT250 FM231600 06008KT P6SM FEW150 BKN200 FM240300 04006KT P6SM BKN100 OVC200
Issued Valid From Valid To
Apr-23 @ 05:20 UTC
(4 hours ago)
Apr-23 @ 06:00 UTC
(4 hours ago)
Apr-24 @ 06:00 UTC
(in 20 hours)
Apr-23 @ 06:00 to Apr-23 @ 16:00
KUES 230520Z 2306/2406 05004KT P6SM SCT250
Wind Visibility Clouds
50° at 4 knots Greater than 6 miles
  • Scattered at 25,000' AGL
From Apr-23 @ 16:00 to Apr-24 @ 03:00
FM231600 06008KT P6SM FEW150 BKN200
Wind Visibility Clouds
60° at 8 knots Greater than 6 miles
  • Few at 15,000' AGL
  • Broken at 20,000' AGL
From Apr-24 @ 03:00 to Apr-24 @ 06:00
FM240300 04006KT P6SM BKN100 OVC200
Wind Visibility Clouds
40° at 6 knots Greater than 6 miles
  • Broken at 10,000' AGL
  • Overcast at 20,000' AGL
KUES 230520Z 2306/2406 05004KT P6SM SCT250 FM231600 06008KT P6SM FEW150 BKN200 FM240300 04006KT P6SM BKN100 OVC200
Issued Apr-23 @ 05:20 UTC
(4 hours ago)
Valid From Apr-23 @ 06:00 UTC
(4 hours ago)
Valid To Apr-24 @ 06:00 UTC
(in 20 hours)
Apr-23 @ 06:00 - Apr-23 @ 16:00
Wind Visibility
50° at 4 knots Greater than 6 miles
Clouds
  • Scattered at 25,000' AGL
From Apr-23 @ 16:00 - Apr-24 @ 03:00
Wind Visibility
60° at 8 knots Greater than 6 miles
Clouds
  • Few at 15,000' AGL
  • Broken at 20,000' AGL
From Apr-24 @ 03:00 - Apr-24 @ 06:00
Wind Visibility
40° at 6 knots Greater than 6 miles
Clouds
  • Broken at 10,000' AGL
  • Overcast at 20,000' AGL